createdAt,value
2022-11-30T00:01:34.492Z,19.02
2022-11-30T00:03:38.610Z,26.10
2022-11-30T00:05:42.545Z,27.23
2022-11-30T00:07:46.993Z,17.90
2022-11-30T00:09:50.684Z,16.88
2022-11-30T00:11:54.593Z,13.50
2022-11-30T00:14:00.121Z,13.80
2022-11-30T00:16:04.481Z,14.73
2022-11-30T00:18:08.246Z,13.52
2022-11-30T00:20:13.327Z,9.77
2022-11-30T00:22:16.877Z,21.48
2022-11-30T00:24:20.746Z,17.60
2022-11-30T00:26:24.546Z,11.98
2022-11-30T00:28:28.513Z,12.75
2022-11-30T00:30:33.693Z,18.38
2022-11-30T00:32:37.735Z,19.60
2022-11-30T00:34:41.432Z,16.40
2022-11-30T00:36:45.339Z,30.08
2022-11-30T00:38:49.452Z,17.60
2022-11-30T00:40:54.191Z,21.00
2022-11-30T00:42:59.012Z,24.77
2022-11-30T00:45:03.409Z,24.27
2022-11-30T00:47:08.841Z,32.45
2022-11-30T00:49:13.223Z,29.63
2022-11-30T00:51:18.667Z,27.60
2022-11-30T00:53:23.771Z,32.22
2022-11-30T00:55:30.366Z,25.10
2022-11-30T00:57:35.153Z,31.95
2022-11-30T00:59:39.544Z,29.05
2022-11-30T01:01:43.443Z,24.20
2022-11-30T01:03:49.111Z,29.00
2022-11-30T01:05:53.866Z,31.75
2022-11-30T01:08:01.381Z,24.98
2022-11-30T01:10:05.835Z,32.13
2022-11-30T01:12:09.634Z,25.08
2022-11-30T01:14:13.540Z,27.35
2022-11-30T01:16:20.196Z,27.05
2022-11-30T01:18:24.634Z,27.60
2022-11-30T01:20:30.493Z,26.33
2022-11-30T01:22:34.828Z,25.33
2022-11-30T01:24:38.844Z,23.60
2022-11-30T01:26:42.916Z,24.17
2022-11-30T01:28:51.239Z,25.08
2022-11-30T01:30:59.281Z,17.75
2022-11-30T01:33:04.312Z,21.27
2022-11-30T01:35:09.405Z,23.05
2022-11-30T01:37:14.970Z,21.80
2022-11-30T01:39:18.885Z,21.40
2022-11-30T01:41:25.551Z,22.60
2022-11-30T01:43:40.609Z,21.20
2022-11-30T01:45:44.939Z,22.20
2022-11-30T01:47:51.044Z,22.23
2022-11-30T01:50:00.548Z,18.52
2022-11-30T01:52:07.527Z,29.02
2022-11-30T01:54:15.071Z,17.63
2022-11-30T01:56:19.238Z,19.90
2022-11-30T01:58:29.437Z,23.60
2022-11-30T02:00:33.262Z,18.80
2022-11-30T02:02:44.730Z,24.73
2022-11-30T02:04:49.104Z,23.17
2022-11-30T02:06:53.924Z,17.88
2022-11-30T02:08:58.135Z,21.63
2022-11-30T02:11:07.072Z,18.92
2022-11-30T02:13:35.501Z,21.10
2022-11-30T02:15:50.242Z,22.73
2022-11-30T02:18:00.473Z,21.40
2022-11-30T02:20:49.062Z,21.23
2022-11-30T02:23:10.269Z,20.63
2022-11-30T02:25:23.728Z,23.83
2022-11-30T02:27:47.586Z,23.92
2022-11-30T02:29:57.158Z,20.33
2022-11-30T02:32:08.905Z,17.67
2022-11-30T02:34:16.770Z,26.38
2022-11-30T02:36:22.585Z,18.65
2022-11-30T02:38:29.027Z,20.67
2022-11-30T02:40:33.705Z,24.10
2022-11-30T02:42:38.198Z,21.95
2022-11-30T02:44:43.201Z,22.17
2022-11-30T02:47:01.340Z,15.48
2022-11-30T02:49:11.738Z,13.63
2022-11-30T02:51:20.521Z,20.13
2022-11-30T02:53:24.818Z,22.80
2022-11-30T02:55:30.481Z,19.60
2022-11-30T02:57:34.901Z,20.13
2022-11-30T02:59:39.184Z,15.18
2022-11-30T03:01:43.985Z,23.10
2022-11-30T03:03:49.267Z,21.45
2022-11-30T03:05:53.703Z,18.45
2022-11-30T03:07:57.543Z,15.65
2022-11-30T03:10:01.552Z,21.45
2022-11-30T03:12:05.908Z,10.80
2022-11-30T03:14:10.009Z,16.80
2022-11-30T03:16:15.708Z,13.65
2022-11-30T03:18:19.738Z,18.90
2022-11-30T03:20:25.064Z,11.35
2022-11-30T03:22:29.123Z,20.17
2022-11-30T03:24:32.994Z,14.55
2022-11-30T03:26:37.342Z,16.38
2022-11-30T03:28:41.122Z,12.27
2022-11-30T03:30:50.531Z,17.45
2022-11-30T03:32:54.697Z,13.82
2022-11-30T03:34:57.991Z,11.13
2022-11-30T03:37:02.878Z,15.30
2022-11-30T03:39:06.154Z,12.38
2022-11-30T03:41:12.366Z,10.50
2022-11-30T03:43:15.749Z,18.35
2022-11-30T03:45:19.317Z,10.90
2022-11-30T03:47:22.652Z,14.40
2022-11-30T03:49:25.988Z,19.55
2022-11-30T03:51:29.369Z,11.77
2022-11-30T03:53:34.896Z,12.98
2022-11-30T03:55:38.191Z,14.77
2022-11-30T03:57:41.665Z,12.52
2022-11-30T03:59:44.977Z,18.38
2022-11-30T04:01:48.392Z,12.20
2022-11-30T04:03:52.987Z,18.17
2022-11-30T04:05:56.754Z,15.77
2022-11-30T04:08:00.164Z,19.30
2022-11-30T04:10:08.425Z,16.25
2022-11-30T04:12:12.161Z,15.05
2022-11-30T04:14:15.601Z,8.98
2022-11-30T04:16:18.935Z,15.35
2022-11-30T04:18:24.436Z,15.85
2022-11-30T04:20:27.730Z,19.08
2022-11-30T04:22:31.183Z,15.38
2022-11-30T04:24:34.477Z,14.68
2022-11-30T04:26:39.247Z,17.38
2022-11-30T04:28:45.080Z,22.95
2022-11-30T04:30:48.676Z,17.88
2022-11-30T04:32:51.979Z,16.20
2022-11-30T04:34:55.475Z,20.55
2022-11-30T04:37:00.632Z,24.20
2022-11-30T04:39:04.221Z,19.77
2022-11-30T04:41:09.310Z,24.50
2022-11-30T04:43:14.755Z,19.67
2022-11-30T04:45:18.214Z,17.55
2022-11-30T04:47:21.654Z,23.75
2022-11-30T04:49:24.904Z,16.48
2022-11-30T04:51:29.224Z,26.02
2022-11-30T04:53:32.667Z,19.38
2022-11-30T04:55:38.265Z,27.10
2022-11-30T04:57:41.740Z,16.15
2022-11-30T04:59:46.503Z,21.15
2022-11-30T05:01:49.836Z,23.00
2022-11-30T05:03:53.222Z,23.90
2022-11-30T05:05:56.587Z,17.30
2022-11-30T05:08:01.220Z,22.90
2022-11-30T05:10:05.023Z,25.17
2022-11-30T05:12:08.932Z,21.40
2022-11-30T05:14:12.365Z,28.25
2022-11-30T05:16:17.217Z,21.73
2022-11-30T05:18:20.922Z,33.30
2022-11-30T05:20:24.455Z,24.90
2022-11-30T05:22:27.805Z,24.40
2022-11-30T05:24:31.807Z,16.35
2022-11-30T05:26:36.023Z,21.02
2022-11-30T05:28:39.477Z,12.50
2022-11-30T05:30:44.060Z,18.70
2022-11-30T05:32:49.470Z,19.02
2022-11-30T05:34:54.153Z,21.75
2022-11-30T05:36:58.581Z,20.75
2022-11-30T05:39:03.187Z,14.00
2022-11-30T05:41:07.491Z,25.48
2022-11-30T05:43:11.966Z,19.40
2022-11-30T05:45:16.388Z,12.55
2022-11-30T05:47:20.567Z,18.00
2022-11-30T05:49:28.555Z,20.85
2022-11-30T05:51:32.730Z,23.60
2022-11-30T05:53:36.449Z,23.10
2022-11-30T05:55:40.484Z,23.80
2022-11-30T05:57:44.585Z,18.42
2022-11-30T05:59:48.580Z,21.83
2022-11-30T06:01:54.556Z,14.95
2022-11-30T06:03:58.618Z,15.57
2022-11-30T06:06:03.802Z,21.55
2022-11-30T06:08:07.701Z,19.15
2022-11-30T06:10:12.710Z,17.02
2022-11-30T06:12:16.545Z,16.98
2022-11-30T06:14:20.640Z,15.43
2022-11-30T06:16:24.633Z,20.13
2022-11-30T06:18:28.510Z,23.83
2022-11-30T06:20:32.717Z,13.48
2022-11-30T06:22:37.800Z,16.73
2022-11-30T06:24:42.093Z,19.17
2022-11-30T06:26:46.244Z,19.73
2022-11-30T06:28:50.607Z,15.65
2022-11-30T06:30:54.628Z,19.67
2022-11-30T06:32:58.476Z,13.73
2022-11-30T06:35:02.264Z,12.57
2022-11-30T06:37:06.470Z,12.93
2022-11-30T06:39:12.844Z,16.13
2022-11-30T06:41:16.820Z,16.05
2022-11-30T06:43:21.430Z,24.08
2022-11-30T06:45:25.787Z,13.95
2022-11-30T06:47:30.223Z,17.20
2022-11-30T06:49:34.352Z,16.45
2022-11-30T06:51:40.077Z,18.15
2022-11-30T06:53:45.684Z,15.25
2022-11-30T06:55:51.300Z,11.98
2022-11-30T06:57:55.464Z,11.85
2022-11-30T06:59:59.934Z,17.95
2022-11-30T07:02:08.785Z,16.80
2022-11-30T07:04:15.297Z,14.52
2022-11-30T07:06:19.288Z,14.02
2022-11-30T07:08:23.849Z,18.60
2022-11-30T07:10:28.277Z,17.17
2022-11-30T07:12:37.604Z,17.23
2022-11-30T07:14:41.938Z,20.45
2022-11-30T07:16:46.136Z,20.98
2022-11-30T07:18:50.329Z,15.38
2022-11-30T07:20:54.880Z,15.55
2022-11-30T07:23:18.670Z,17.80
2022-11-30T07:25:40.386Z,20.08
2022-11-30T07:27:46.026Z,19.27
2022-11-30T07:29:51.786Z,12.38
2022-11-30T07:31:56.687Z,17.85
2022-11-30T07:34:05.233Z,15.73
2022-11-30T07:36:10.009Z,17.25
2022-11-30T07:38:13.865Z,21.00
2022-11-30T07:40:18.084Z,16.75
2022-11-30T07:42:23.192Z,14.52
2022-11-30T07:44:28.733Z,21.17
2022-11-30T07:46:34.180Z,26.65
2022-11-30T07:48:38.271Z,17.55
2022-11-30T07:50:43.030Z,23.23
2022-11-30T07:52:47.445Z,18.23
2022-11-30T07:54:51.622Z,27.17
2022-11-30T07:56:56.268Z,21.08
2022-11-30T07:59:02.337Z,21.42
2022-11-30T08:01:10.743Z,16.92
2022-11-30T08:03:15.360Z,16.42
2022-11-30T08:05:19.857Z,22.65
2022-11-30T08:07:23.959Z,13.32
2022-11-30T08:09:28.119Z,20.23
2022-11-30T08:11:33.893Z,16.10
2022-11-30T08:13:38.482Z,20.95
2022-11-30T08:15:42.321Z,19.60
2022-11-30T08:17:49.939Z,19.73
2022-11-30T08:19:53.793Z,16.20
2022-11-30T08:21:57.604Z,22.20
2022-11-30T08:24:02.208Z,23.55
2022-11-30T08:26:07.405Z,20.38
2022-11-30T08:28:11.265Z,24.75
2022-11-30T08:30:15.908Z,17.52
2022-11-30T08:32:19.871Z,22.70
2022-11-30T08:34:27.279Z,23.23
2022-11-30T08:36:32.274Z,25.42
2022-11-30T08:38:36.073Z,27.90
2022-11-30T08:40:39.940Z,32.35
2022-11-30T08:42:43.818Z,22.85
2022-11-30T08:44:48.279Z,31.35
2022-11-30T08:46:52.841Z,23.55
2022-11-30T08:49:13.003Z,28.77
2022-11-30T08:51:22.457Z,18.58
2022-11-30T08:53:26.505Z,24.23
2022-11-30T08:55:30.096Z,24.15
2022-11-30T08:57:34.623Z,22.90
2022-11-30T08:59:38.506Z,25.95
2022-11-30T09:01:42.877Z,19.10
2022-11-30T09:03:47.515Z,18.73
2022-11-30T09:05:51.030Z,17.20
2022-11-30T09:07:56.160Z,19.05
2022-11-30T09:09:59.934Z,17.60
2022-11-30T09:12:04.290Z,20.20
2022-11-30T09:14:09.320Z,12.63
2022-11-30T09:16:13.639Z,16.08
2022-11-30T09:18:17.337Z,15.32
2022-11-30T09:20:21.162Z,8.82
2022-11-30T09:22:24.707Z,9.18
2022-11-30T09:24:30.094Z,14.10
2022-11-30T09:26:33.611Z,12.32
2022-11-30T09:28:37.818Z,20.27
2022-11-30T09:30:41.454Z,9.32
2022-11-30T09:32:45.266Z,14.68
2022-11-30T09:34:50.693Z,10.35
2022-11-30T09:36:54.817Z,11.38
2022-11-30T09:38:58.702Z,16.25
2022-11-30T09:41:07.847Z,14.30
2022-11-30T09:43:25.958Z,8.80
2022-11-30T09:45:33.181Z,5.07
2022-11-30T09:48:18.407Z,8.98
2022-11-30T09:50:24.432Z,8.00
2022-11-30T09:52:35.273Z,7.10
2022-11-30T09:54:41.450Z,7.38
2022-11-30T09:56:47.790Z,6.90
2022-11-30T09:58:56.324Z,12.10
2022-11-30T10:01:06.564Z,9.77
2022-11-30T10:03:14.811Z,7.15
2022-11-30T10:05:21.465Z,9.88
2022-11-30T10:07:45.052Z,7.35
2022-11-30T10:12:25.263Z,8.75
2022-11-30T10:14:41.755Z,5.88
2022-11-30T10:16:52.146Z,5.55
2022-11-30T10:19:05.730Z,9.60
2022-11-30T10:21:23.880Z,6.60
2022-11-30T10:23:47.423Z,8.30
2022-11-30T10:28:30.911Z,8.20
2022-11-30T10:30:37.014Z,4.60
2022-11-30T10:32:43.452Z,6.72
2022-11-30T10:34:52.024Z,11.35
2022-11-30T10:37:02.824Z,4.43
2022-11-30T10:39:14.445Z,6.72
2022-11-30T10:41:22.619Z,6.35
2022-11-30T10:43:33.243Z,10.20
2022-11-30T10:45:44.466Z,5.70
2022-11-30T10:47:54.123Z,18.67
2022-11-30T10:49:57.780Z,5.78
2022-11-30T10:52:06.965Z,9.38
2022-11-30T10:54:16.639Z,6.75
2022-11-30T10:56:20.294Z,6.40
2022-11-30T10:58:28.951Z,4.90
2022-11-30T11:00:34.423Z,6.50
2022-11-30T11:02:41.836Z,6.72
2022-11-30T11:04:45.632Z,5.25
2022-11-30T11:06:54.040Z,4.60
2022-11-30T11:08:57.923Z,2.92
2022-11-30T11:11:01.386Z,6.20
2022-11-30T11:13:06.468Z,5.72
2022-11-30T11:15:11.529Z,6.10
2022-11-30T11:17:27.077Z,3.58
2022-11-30T11:19:37.008Z,9.15
2022-11-30T11:21:40.899Z,5.47
2022-11-30T11:23:46.226Z,9.65
2022-11-30T11:25:57.891Z,10.73
2022-11-30T11:28:09.360Z,3.60
2022-11-30T11:30:18.965Z,2.58
2022-11-30T11:32:26.304Z,3.85
2022-11-30T11:34:34.970Z,6.80
2022-11-30T11:36:38.605Z,5.50
2022-11-30T11:38:45.176Z,5.25
2022-11-30T11:40:57.801Z,4.85
2022-11-30T11:43:04.091Z,6.07
2022-11-30T11:45:17.091Z,4.13
2022-11-30T11:47:28.268Z,5.80
2022-11-30T11:49:36.207Z,5.20
2022-11-30T11:51:41.696Z,4.97
2022-11-30T11:53:53.355Z,5.82
2022-11-30T11:56:04.220Z,2.85
2022-11-30T11:58:12.176Z,8.23
2022-11-30T12:00:18.983Z,5.40
2022-11-30T12:02:34.068Z,6.05
2022-11-30T12:04:45.861Z,3.17
2022-11-30T12:06:53.832Z,5.97
2022-11-30T12:09:02.370Z,5.97
2022-11-30T12:11:11.767Z,10.35
2022-11-30T12:13:19.210Z,8.40
2022-11-30T12:15:28.900Z,4.93
2022-11-30T12:17:48.302Z,12.68
2022-11-30T12:20:01.833Z,14.07
2022-11-30T12:22:17.507Z,6.13
2022-11-30T12:24:40.497Z,6.97
2022-11-30T12:26:48.954Z,11.95
2022-11-30T12:29:10.167Z,11.70
2022-11-30T12:31:16.240Z,10.77
2022-11-30T12:33:35.849Z,6.82
2022-11-30T12:35:53.531Z,7.82
2022-11-30T12:38:05.935Z,7.85
2022-11-30T12:40:23.490Z,10.13
2022-11-30T12:42:38.366Z,4.70
2022-11-30T12:44:55.047Z,5.18
2022-11-30T12:47:07.081Z,8.32
2022-11-30T12:49:32.373Z,7.22
2022-11-30T12:51:40.700Z,5.57
2022-11-30T12:53:53.352Z,6.68
2022-11-30T12:56:11.321Z,6.43
2022-11-30T12:58:24.157Z,4.95
2022-11-30T13:00:37.106Z,6.13
2022-11-30T13:03:11.045Z,5.32
2022-11-30T13:07:27.968Z,3.50
2022-11-30T13:09:36.622Z,9.07
2022-11-30T13:11:41.898Z,7.43
2022-11-30T13:13:51.672Z,10.13
2022-11-30T13:15:56.227Z,4.20
2022-11-30T13:18:01.914Z,5.32
2022-11-30T13:20:10.009Z,4.10
2022-11-30T13:22:23.222Z,4.30
2022-11-30T13:24:33.220Z,5.78
2022-11-30T13:26:43.978Z,4.90
2022-11-30T13:29:15.129Z,3.67
2022-11-30T13:31:24.823Z,7.10
2022-11-30T13:33:49.705Z,4.22
2022-11-30T13:35:56.721Z,11.27
2022-11-30T13:38:35.372Z,4.20
2022-11-30T13:40:29.517Z,5.25
2022-11-30T13:42:36.527Z,3.65
2022-11-30T13:44:42.355Z,8.77
2022-11-30T13:46:53.256Z,7.43
2022-11-30T13:49:20.671Z,14.82
2022-11-30T13:51:45.240Z,5.53
2022-11-30T13:53:50.804Z,3.30
2022-11-30T13:56:07.394Z,6.68
2022-11-30T13:58:13.733Z,10.90
2022-11-30T14:00:45.881Z,4.68
2022-11-30T14:02:55.298Z,12.82
2022-11-30T14:05:22.957Z,4.43
2022-11-30T14:07:39.442Z,4.10
2022-11-30T14:10:01.436Z,10.25
2022-11-30T14:12:40.596Z,11.48
2022-11-30T14:14:49.259Z,9.65
2022-11-30T14:16:52.928Z,5.32
2022-11-30T14:18:58.026Z,6.85
2022-11-30T14:21:04.686Z,10.73
2022-11-30T14:23:10.009Z,8.65
2022-11-30T14:25:18.835Z,13.75
2022-11-30T14:27:25.840Z,13.88
2022-11-30T14:29:34.637Z,16.67
2022-11-30T14:31:43.394Z,9.32
2022-11-30T14:33:51.856Z,6.57
2022-11-30T14:35:58.051Z,7.65
2022-11-30T14:38:04.065Z,50.45
2022-11-30T14:40:13.029Z,26.55
2022-11-30T14:42:23.967Z,33.47
2022-11-30T14:44:27.756Z,25.35
2022-11-30T14:46:33.926Z,16.63
2022-11-30T14:48:37.816Z,17.77
2022-11-30T14:50:45.325Z,22.77
2022-11-30T14:53:01.319Z,19.17
2022-11-30T14:55:16.494Z,29.00
2022-11-30T14:57:34.051Z,21.25
2022-11-30T14:59:47.948Z,25.40
2022-11-30T15:01:57.930Z,19.88
2022-11-30T15:04:09.631Z,16.38
2022-11-30T15:06:17.587Z,15.10
2022-11-30T15:08:21.789Z,13.70
2022-11-30T15:10:30.109Z,12.52
2022-11-30T15:12:37.024Z,17.10
2022-11-30T15:14:40.984Z,12.98
2022-11-30T15:16:51.128Z,17.63
2022-11-30T15:18:58.279Z,19.23
2022-11-30T15:21:05.061Z,16.25
2022-11-30T15:23:15.192Z,18.77
2022-11-30T15:25:19.456Z,27.35
2022-11-30T15:27:25.359Z,14.27
2022-11-30T15:29:33.190Z,30.60
2022-11-30T15:31:40.911Z,24.75
2022-11-30T15:33:47.162Z,44.25
2022-11-30T15:38:21.903Z,20.63
2022-11-30T15:40:35.172Z,26.45
2022-11-30T15:42:41.798Z,14.60
2022-11-30T15:44:49.033Z,24.95
2022-11-30T15:46:59.249Z,33.17
2022-11-30T15:49:17.977Z,22.33
2022-11-30T15:51:26.596Z,23.70
2022-11-30T15:53:33.773Z,16.58
2022-11-30T15:55:45.780Z,12.77
2022-11-30T15:58:00.811Z,18.20
2022-11-30T16:00:10.313Z,18.52
2022-11-30T16:02:30.382Z,20.58
2022-11-30T16:05:12.392Z,23.80
2022-11-30T16:07:19.300Z,16.50
2022-11-30T16:09:26.934Z,22.38
2022-11-30T16:11:31.228Z,18.02
2022-11-30T16:13:35.480Z,21.92
2022-11-30T16:15:47.066Z,21.38
2022-11-30T16:17:51.651Z,21.33
2022-11-30T16:19:55.895Z,21.63
2022-11-30T16:22:00.466Z,16.17
2022-11-30T16:24:05.601Z,19.25
2022-11-30T16:26:35.970Z,17.23
2022-11-30T16:28:39.248Z,16.30
2022-11-30T16:30:46.568Z,27.75
2022-11-30T16:32:51.581Z,9.68
2022-11-30T16:34:56.297Z,18.77
2022-11-30T16:37:00.756Z,25.50
2022-11-30T16:39:05.390Z,22.75
2022-11-30T16:41:17.555Z,22.42
2022-11-30T16:43:22.710Z,21.67
2022-11-30T16:45:29.895Z,29.15
2022-11-30T16:47:35.732Z,18.10
2022-11-30T16:49:40.071Z,20.33
2022-11-30T16:51:44.491Z,28.80
2022-11-30T16:53:48.802Z,29.20
2022-11-30T16:55:53.010Z,21.23
2022-11-30T16:57:57.151Z,21.45
2022-11-30T17:00:01.065Z,28.75
2022-11-30T17:02:04.863Z,15.10
2022-11-30T17:04:14.860Z,31.70
2022-11-30T17:06:20.934Z,21.48
2022-11-30T17:08:25.510Z,14.30
2022-11-30T17:10:29.317Z,11.45
2022-11-30T17:12:33.692Z,11.57
2022-11-30T17:14:37.333Z,9.40
2022-11-30T17:16:41.515Z,29.17
2022-11-30T17:18:45.283Z,14.65
2022-11-30T17:20:50.319Z,11.35
2022-11-30T17:22:54.546Z,10.93
2022-11-30T17:24:58.236Z,10.63
2022-11-30T17:27:02.021Z,10.80
2022-11-30T17:29:05.994Z,12.85
2022-11-30T17:31:10.760Z,15.82
2022-11-30T17:33:14.656Z,11.48
2022-11-30T17:35:18.457Z,10.73
2022-11-30T17:37:24.967Z,13.13
2022-11-30T17:39:28.769Z,14.13
2022-11-30T17:41:32.394Z,15.38
2022-11-30T17:43:38.198Z,14.93
2022-11-30T17:45:42.087Z,15.73
2022-11-30T17:47:45.773Z,18.08
2022-11-30T17:49:49.582Z,16.10
2022-11-30T17:51:53.349Z,23.73
2022-11-30T17:53:59.414Z,20.38
2022-11-30T17:56:04.910Z,20.83
2022-11-30T17:58:09.086Z,35.70
2022-11-30T18:00:13.625Z,15.40
2022-11-30T18:02:17.641Z,25.00
2022-11-30T18:04:21.278Z,20.60
2022-11-30T18:06:25.318Z,25.65
2022-11-30T18:08:29.084Z,28.27
2022-11-30T18:10:34.645Z,20.08
2022-11-30T18:12:38.765Z,24.45
2022-11-30T18:14:42.581Z,18.83
2022-11-30T18:16:46.656Z,19.45
2022-11-30T18:18:50.804Z,20.50
2022-11-30T18:20:55.020Z,24.80
2022-11-30T18:22:58.774Z,26.38
2022-11-30T18:25:02.519Z,24.25
2022-11-30T18:27:07.616Z,28.05
2022-11-30T18:29:11.977Z,30.42
2022-11-30T18:31:15.568Z,36.53
2022-11-30T18:33:19.585Z,62.20
2022-11-30T18:35:23.323Z,91.38
2022-11-30T18:37:27.423Z,55.88
2022-11-30T18:39:31.426Z,60.30
2022-11-30T18:41:35.257Z,54.25
2022-11-30T18:43:40.763Z,49.22
2022-11-30T18:45:45.661Z,47.28
2022-11-30T18:47:50.186Z,57.55
2022-11-30T18:49:54.417Z,46.63
2022-11-30T18:51:58.177Z,90.10
2022-11-30T18:54:04.805Z,82.30
2022-11-30T18:56:13.496Z,105.07
2022-11-30T18:58:17.516Z,84.22
2022-11-30T19:00:22.835Z,83.50
2022-11-30T19:02:27.340Z,81.05
2022-11-30T19:04:31.539Z,100.88
2022-11-30T19:06:36.521Z,86.28
2022-11-30T19:08:41.925Z,93.57
2022-11-30T19:10:46.008Z,79.13
2022-11-30T19:12:49.961Z,76.15
2022-11-30T19:14:54.915Z,57.63
2022-11-30T19:17:00.891Z,52.38
2022-11-30T19:19:07.696Z,48.17
2022-11-30T19:21:13.066Z,43.90
2022-11-30T19:23:17.738Z,42.70
2022-11-30T19:25:22.545Z,47.50
2022-11-30T19:27:26.736Z,49.55
2022-11-30T19:29:31.567Z,53.30
2022-11-30T19:31:35.551Z,54.42
2022-11-30T19:33:43.520Z,58.67
2022-11-30T19:35:47.791Z,52.60
2022-11-30T19:37:53.605Z,48.10
2022-11-30T19:39:57.517Z,50.40
2022-11-30T19:42:01.796Z,44.90
2022-11-30T19:44:06.289Z,50.05
2022-11-30T19:46:12.845Z,46.33
2022-11-30T19:48:16.856Z,48.20
2022-11-30T19:50:23.104Z,45.60
2022-11-30T19:52:27.093Z,37.03
2022-11-30T19:54:34.762Z,39.67
2022-11-30T19:56:39.283Z,36.55
2022-11-30T19:58:44.083Z,38.05
2022-11-30T20:00:48.590Z,36.55
2022-11-30T20:02:53.154Z,39.15
2022-11-30T20:04:57.393Z,40.47
2022-11-30T20:07:03.778Z,40.42
2022-11-30T20:09:09.544Z,47.13
2022-11-30T20:11:15.764Z,47.05
2022-11-30T20:13:19.369Z,71.35
2022-11-30T20:15:23.340Z,74.93
2022-11-30T20:17:27.520Z,75.90
2022-11-30T20:19:31.993Z,78.55
2022-11-30T20:21:37.700Z,85.15
2022-11-30T20:23:44.863Z,103.55
2022-11-30T20:25:48.531Z,93.57
2022-11-30T20:27:52.567Z,101.28
2022-11-30T20:29:56.753Z,99.80
2022-11-30T20:32:00.832Z,81.18
2022-11-30T20:34:04.537Z,91.93
2022-11-30T20:36:10.686Z,93.03
2022-11-30T20:38:14.498Z,95.43
2022-11-30T20:40:20.860Z,103.22
2022-11-30T20:42:24.783Z,129.55
2022-11-30T20:44:28.770Z,131.27
2022-11-30T20:46:34.346Z,113.82
2022-11-30T20:48:38.195Z,113.53
2022-11-30T20:50:41.962Z,84.65
2022-11-30T20:52:45.678Z,91.35
2022-11-30T20:54:49.497Z,78.50
2022-11-30T20:56:54.872Z,98.53
2022-11-30T20:59:02.495Z,100.30
2022-11-30T21:01:12.876Z,97.95
2022-11-30T21:03:16.675Z,91.10
2022-11-30T21:05:21.267Z,89.45
2022-11-30T21:07:25.373Z,93.05
2022-11-30T21:09:29.349Z,110.38
2022-11-30T21:11:33.453Z,117.47
2022-11-30T21:13:39.737Z,102.50
2022-11-30T21:15:44.593Z,102.45
2022-11-30T21:17:49.385Z,108.40
2022-11-30T21:19:53.651Z,106.63
2022-11-30T21:21:59.757Z,110.45
2022-11-30T21:24:06.341Z,101.85
2022-11-30T21:26:17.426Z,104.88
2022-11-30T21:28:21.475Z,96.75
2022-11-30T21:30:27.546Z,110.93
2022-11-30T21:32:31.963Z,107.68
2022-11-30T21:34:36.194Z,104.95
2022-11-30T21:36:40.633Z,105.80
2022-11-30T21:38:45.543Z,106.45
2022-11-30T21:40:56.103Z,105.65
2022-11-30T21:43:00.808Z,101.68
2022-11-30T21:45:05.189Z,94.03
2022-11-30T21:47:14.001Z,109.97
2022-11-30T21:49:18.451Z,101.55
2022-11-30T21:51:25.174Z,112.65
2022-11-30T21:53:30.686Z,104.85
2022-11-30T21:55:37.217Z,103.38
2022-11-30T21:57:42.081Z,91.10
2022-11-30T21:59:47.481Z,101.47
2022-11-30T22:01:51.744Z,118.15
2022-11-30T22:03:58.652Z,121.25
2022-11-30T22:06:06.419Z,111.63
2022-11-30T22:08:11.398Z,97.57
2022-11-30T22:10:15.848Z,108.20
2022-11-30T22:12:19.832Z,100.97
2022-11-30T22:14:24.157Z,93.43
2022-11-30T22:16:35.631Z,104.10
2022-11-30T22:18:41.994Z,155.70
2022-11-30T22:20:48.477Z,107.97
2022-11-30T22:22:53.518Z,101.80
2022-11-30T22:24:58.217Z,110.60
2022-11-30T22:27:03.554Z,119.80
2022-11-30T22:29:12.828Z,107.35
2022-11-30T22:31:20.327Z,109.78
2022-11-30T22:33:25.102Z,110.38
2022-11-30T22:35:33.513Z,104.53
2022-11-30T22:37:40.393Z,102.00
2022-11-30T22:39:45.673Z,101.88
2022-11-30T22:41:56.111Z,99.78
2022-11-30T22:44:03.813Z,102.90
2022-11-30T22:46:09.712Z,108.63
2022-11-30T22:48:14.489Z,117.28
2022-11-30T22:50:19.718Z,118.78
2022-11-30T22:52:42.387Z,104.22
2022-11-30T22:54:52.024Z,105.40
2022-11-30T22:56:56.280Z,110.50
2022-11-30T22:59:01.763Z,113.10
2022-11-30T23:01:15.395Z,120.35
2022-11-30T23:03:19.379Z,102.70
2022-11-30T23:05:23.684Z,109.65
2022-11-30T23:07:32.012Z,113.32
2022-11-30T23:09:37.145Z,108.32
2022-11-30T23:11:44.346Z,109.00
2022-11-30T23:13:51.087Z,104.50
2022-11-30T23:16:00.186Z,109.78
2022-11-30T23:18:06.220Z,106.10
2022-11-30T23:20:11.874Z,107.30
2022-11-30T23:22:16.846Z,108.65
2022-11-30T23:24:24.318Z,111.72
2022-11-30T23:26:31.687Z,112.60
2022-11-30T23:28:41.590Z,105.40
2022-11-30T23:30:45.986Z,103.07
2022-11-30T23:32:53.121Z,93.60
2022-11-30T23:34:57.890Z,93.95
2022-11-30T23:37:03.417Z,101.65
2022-11-30T23:39:11.539Z,91.18
2022-11-30T23:41:17.999Z,85.13
2022-11-30T23:43:24.247Z,86.85
2022-11-30T23:45:30.975Z,87.28
2022-11-30T23:47:35.284Z,80.68
2022-11-30T23:49:40.483Z,77.63
2022-11-30T23:51:46.333Z,85.68
2022-11-30T23:53:54.083Z,88.15
2022-11-30T23:55:59.373Z,75.47
2022-11-30T23:58:03.645Z,84.15
